Hlavní strana
METAR-TAF:

METAR-TAF

Letiště :

Mezinárodní letiště Indiry Gándhíové

Nové Dillí, Indie

zeměpisná šířka: 28-34N, zeměpisná délka: 077-07E, výška: 220 m

Aktuální stav počasí

Zpráva byla vytvořena před 21 minutami, v 22:00 UTC
Západní vítr 4 kt
Teplota 11°C
Vlhkost vzduchu 94%
Tlak 1021 hPa
Viditelnost: 0800 m
Přízemní mlha

METAR: VIDP 132200Z 26004KT 0800 R28/P2000 R29/P2000 MIFG NSC 11/10 Q1021 NOSIG

Čas: 03:51 (22:21 UTC)

Předpověď počasí

Zpráva byla vytvořena před 2 hodinami a 21 minutami, v 20:00 UTC
Předpověď platná od 13 v 21 UTC do 14 v 06 UTC
Západojihozápadní vítr 4 kt
Viditelnost: 1000 m
kouřmo
Změna
od 14 v 00 UTC do 14 v 02 UTC
Viditelnost: 0300 m
mlha
Změna
od 14 v 04 UTC do 14 v 05 UTC
Severoseverozápadní vítr 8 kt
Viditelnost: 1500 m
kouřmo, zákal

TAF: VIDP 132000Z 1321/1406 25004KT 1000 BR NSC BECMG 1400/1402 0300 FG BECMG 1404/1405 33008KT 1500 BR HZ

Stav a předpovědi počasí z více než 4 000 letišť (zprávy METAR a TAF).

Červené a žluté tečky na mapě představují dostupné meteorologické stanice.

Když kurzor umístíte na tečku, zobrazí se název stanice.

Pak kliknutím zobrazíte stav a předpověď počasí.

Chcete-li změnit mapu, kliknutím na zelené tlačítko se znaménkem +mapu přiblížíte, kliknutím na zelené tlačítko se znaménkem – mapu oddálíte a kliknutím na zelené šipky přejdete na sousední mapy.


METAR-TAF: